Time;durP1;ratioP1;P1;durP2;ratioP2;P2;SDS_P1;SDS_P2;PMS_P1;PMS_P2;Temp;Humidity;BMP_temperature;BMP_pressure;BME280_temperature;BME280_humidity;BME280_pressure;Samples;Min_cycle;Max_cycle;Signal;HPM_P1;HPM_P2
2021/10/14 00:00:12;;;;;;;13.60;12.10;;;;;;;7.56;74.83;100059.92;1719112;81;21310;-64
2021/10/14 00:02:39;;;;;;;14.60;12.47;;;;;;;8.36;75.03;100202.54;1680209;83;21336;-62
2021/10/14 00:05:07;;;;;;;14.98;11.68;;;;;;;7.00;74.97;99994.29;1685090;83;21022;-63
2021/10/14 00:07:33;;;;;;;13.33;10.43;;;;;;;8.34;74.93;100209.86;1682787;83;21287;-62
2021/10/14 00:09:59;;;;;;;;;;;;;;;8.39;74.83;100210.98;1678351;83;21350;-63
2021/10/14 00:12:25;;;;;;;12.83;9.57;;;;;;;8.34;74.25;100214.69;1665170;83;20156;-63
2021/10/14 00:14:51;;;;;;;15.23;10.88;;;;;;;8.17;75.00;100205.16;1666742;84;21796;-62
2021/10/14 00:17:18;;;;;;;14.43;10.93;;;;;;;8.17;75.00;100205.16;1664345;84;21070;-63
2021/10/14 00:19:45;;;;;;;12.65;9.28;;;;;;;8.13;75.11;100210.50;1674226;84;21358;-63
2021/10/14 00:22:11;;;;;;;13.03;10.20;;;;;;;8.14;74.97;100214.82;1666890;81;21835;-62
2021/10/14 00:24:37;;;;;;;9.75;8.63;;;;;;;8.16;74.85;100216.80;1725194;81;20992;-63
2021/10/14 00:27:03;;;;;;;13.83;10.88;;;;;;;8.18;74.99;100216.12;1727331;81;21033;-63
2021/10/14 00:29:30;;;;;;;;;;;;;;;8.19;75.03;100222.59;1728410;81;21826;-64
2021/10/14 00:31:56;;;;;;;12.10;10.17;;;;;;;8.14;74.97;100221.46;1724471;81;20256;-65
2021/10/14 00:34:22;;;;;;;13.53;11.33;;;;;;;8.04;75.24;100223.49;1697407;80;21018;-62
2021/10/14 00:36:48;;;;;;;13.35;10.20;;;;;;;8.03;75.34;100224.51;1670329;84;21098;-62
2021/10/14 00:39:14;;;;;;;12.13;10.65;;;;;;;8.05;75.32;100229.14;1662758;84;21066;-63
2021/10/14 00:41:40;;;;;;;10.60;9.37;;;;;;;8.09;75.21;100233.91;1668640;84;21843;-63
2021/10/14 00:44:06;;;;;;;12.68;9.90;;;;;;;8.14;75.04;100225.44;1673815;84;21359;-65
2021/10/14 00:46:33;;;;;;;10.82;9.73;;;;;;;8.14;74.92;100226.26;1653938;85;21090;-64
2021/10/14 00:48:59;;;;;;;12.28;10.23;;;;;;;8.15;74.86;100229.73;1656192;85;21119;-62
2021/10/14 00:51:27;;;;;;;11.83;10.40;;;;;;;8.10;74.91;100231.59;1658478;85;21125;-63
2021/10/14 00:53:53;;;;;;;13.47;10.57;;;;;;;8.09;74.94;100239.73;1656092;85;21042;-62
2021/10/14 00:56:20;;;;;;;14.23;10.98;;;;;;;8.06;74.89;100236.94;1660012;85;21045;-63
2021/10/14 00:58:47;;;;;;;14.60;10.25;;;;;;;8.05;74.92;100239.25;1659340;85;21311;-63
2021/10/14 01:01:13;;;;;;;11.10;9.53;;;;;;;8.07;74.80;100241.23;1632421;85;21062;-62
2021/10/14 01:03:40;;;;;;;11.03;9.60;;;;;;;8.11;74.53;100247.84;1643814;85;21066;-64
2021/10/14 01:06:06;;;;;;;11.48;9.20;;;;;;;7.80;74.47;100194.27;1676509;84;21069;-63
2021/10/14 01:08:32;;;;;;;10.40;9.40;;;;;;;7.64;74.61;100174.95;1674275;84;21954;-65
2021/10/14 01:10:59;;;;;;;11.35;10.18;;;;;;;8.01;74.46;100245.09;1674727;84;21309;-63
2021/10/14 01:13:25;;;;;;;11.85;8.85;;;;;;;7.97;74.52;100253.39;1665183;83;21393;-66
2021/10/14 01:15:51;;;;;;;11.22;8.68;;;;;;;8.04;74.37;100252.69;1661906;84;21065;-64
2021/10/14 01:18:17;;;;;;;10.93;9.18;;;;;;;8.06;74.33;100245.38;1658392;84;21383;-63
2021/10/14 01:20:44;;;;;;;11.50;9.80;;;;;;;8.05;74.24;100247.72;1670928;84;21924;-62
2021/10/14 01:23:12;;;;;;;9.60;8.55;;;;;;;7.99;74.40;100261.19;1667467;84;21237;-62
2021/10/14 01:25:39;;;;;;;10.70;9.10;;;;;;;7.91;74.59;100260.73;1663592;84;21066;-62
2021/10/14 01:28:05;;;;;;;10.25;8.70;;;;;;;7.86;74.79;100265.72;1664624;84;21384;-61
2021/10/14 01:30:32;;;;;;;9.77;8.20;;;;;;;7.88;74.96;100259.73;1664003;84;21197;-64
2021/10/14 01:32:58;;;;;;;11.60;8.80;;;;;;;7.94;74.85;100269.66;1663000;85;21168;-63
2021/10/14 01:35:24;;;;;;;11.08;8.05;;;;;;;8.01;74.90;100271.13;1685050;84;21033;-64
2021/10/14 01:37:50;;;;;;;10.25;8.85;;;;;;;8.04;74.55;100277.41;1683126;84;21076;-64
2021/10/14 01:40:17;;;;;;;10.13;9.13;;;;;;;7.97;74.53;100274.63;1681501;84;21083;-61
2021/10/14 01:42:43;;;;;;;13.88;9.98;;;;;;;7.94;74.74;100277.62;1680532;84;21871;-62
2021/10/14 01:45:09;;;;;;;11.45;9.35;;;;;;;7.94;74.77;100288.73;1676508;83;21070;-62
2021/10/14 01:47:36;;;;;;;;;;;;;;;7.95;74.78;100288.58;1681652;84;21005;-63
2021/10/14 01:50:04;;;;;;;9.73;8.53;;;;;;;8.00;74.64;100281.41;1675801;84;20675;-62
2021/10/14 01:52:31;;;;;;;10.70;8.43;;;;;;;8.01;74.68;100287.56;1684930;84;21859;-64
2021/10/14 01:54:57;;;;;;;8.50;7.47;;;;;;;8.05;74.55;100289.69;1688727;84;20986;-62
2021/10/14 01:57:23;;;;;;;11.18;8.23;;;;;;;8.06;74.51;100298.47;1677449;84;21023;-63
2021/10/14 01:59:49;;;;;;;11.40;8.48;;;;;;;8.03;74.41;100300.16;1680819;84;21002;-63
2021/10/14 02:02:17;;;;;;;7.67;6.70;;;;;;;8.00;74.23;100299.98;1667793;84;20998;-62
2021/10/14 02:04:43;;;;;;;8.20;7.17;;;;;;;8.00;74.26;100298.66;1669548;84;20961;-62
2021/10/14 02:07:10;;;;;;;6.45;5.78;;;;;;;8.06;74.08;100301.97;1670480;84;21086;-63
2021/10/14 02:09:36;;;;;;;9.93;7.20;;;;;;;8.08;73.79;100294.66;1668012;84;20999;-63
2021/10/14 02:12:03;;;;;;;7.75;6.47;;;;;;;8.08;73.53;100297.80;1668478;84;20959;-66
2021/10/14 02:14:29;;;;;;;10.10;7.10;;;;;;;8.01;73.53;100301.66;1670133;84;20991;-62
2021/10/14 02:16:55;;;;;;;8.15;6.78;;;;;;;7.96;73.50;100300.83;1669053;84;21077;-64
2021/10/14 02:19:23;;;;;;;7.43;6.73;;;;;;;7.94;73.61;100305.48;1667367;84;20957;-65
2021/10/14 02:21:49;;;;;;;8.53;7.67;;;;;;;7.91;73.62;100302.34;1666548;84;20994;-63
2021/10/14 02:24:15;;;;;;;7.87;7.08;;;;;;;7.93;73.66;100306.50;1665753;84;20979;-63
2021/10/14 02:26:42;;;;;;;7.97;7.10;;;;;;;8.01;73.58;100308.80;1668509;84;20948;-65
2021/10/14 02:29:12;;;;;;;10.30;7.10;;;;;;;8.06;73.51;100310.42;1665064;84;20979;-65
2021/10/14 02:31:35;;;;;;;6.87;5.60;;;;;;;8.05;73.27;100314.09;1664676;84;21040;-63
2021/10/14 02:34:01;;;;;;;6.75;6.03;;;;;;;8.01;73.26;100311.45;1662007;84;21002;-66
2021/10/14 02:36:28;;;;;;;8.40;7.50;;;;;;;7.94;73.22;100320.08;1635738;85;21093;-66
2021/10/14 02:38:54;;;;;;;6.90;6.30;;;;;;;7.92;73.49;100327.90;1635482;84;21477;-66
2021/10/14 02:41:20;;;;;;;7.95;6.55;;;;;;;7.90;73.43;100326.73;1634735;85;21053;-67
2021/10/14 02:43:46;;;;;;;9.50;7.15;;;;;;;7.80;73.29;100308.36;1635061;85;21118;-67
2021/10/14 02:46:12;;;;;;;10.68;6.12;;;;;;;7.98;73.06;100337.83;1638413;84;21052;-65
2021/10/14 02:48:39;;;;;;;7.07;5.93;;;;;;;7.97;73.08;100334.86;1638484;84;21080;-65
2021/10/14 02:51:05;;;;;;;10.05;7.65;;;;;;;7.89;73.36;100348.13;1639567;84;21180;-67
2021/10/14 02:53:31;;;;;;;8.18;7.25;;;;;;;7.89;73.36;100348.13;1639511;84;21033;-66
2021/10/14 02:55:57;;;;;;;9.13;7.45;;;;;;;7.81;73.38;100350.31;1637816;84;21304;-67
2021/10/14 02:58:23;;;;;;;10.10;7.58;;;;;;;7.75;73.56;100354.98;1639352;84;21340;-65
2021/10/14 03:00:50;;;;;;;7.50;6.72;;;;;;;7.54;73.53;100319.72;1638740;84;21029;-68
2021/10/14 03:03:16;;;;;;;8.10;6.78;;;;;;;7.70;73.66;100350.67;1637063;85;21068;-65
2021/10/14 03:05:42;;;;;;;11.70;7.05;;;;;;;7.66;73.80;100350.18;1608930;86;21139;-66
2021/10/14 03:08:08;;;;;;;9.00;8.18;;;;;;;7.46;73.93;100325.02;1578857;88;21074;-61
2021/10/14 03:10:34;;;;;;;8.75;7.95;;;;;;;7.39;73.99;100331.50;1636548;85;21136;-60
2021/10/14 03:13:00;;;;;;;10.60;8.45;;;;;;;7.49;74.06;100362.64;1636651;85;22338;-61
2021/10/14 03:15:28;;;;;;;11.17;9.23;;;;;;;7.40;74.26;100359.66;1636556;85;22792;-60
2021/10/14 03:17:54;;;;;;;10.18;7.72;;;;;;;7.32;74.37;100363.15;1636433;85;22317;-60
2021/10/14 03:20:20;;;;;;;8.28;7.45;;;;;;;7.32;74.41;100364.48;1637220;85;21116;-61
2021/10/14 03:22:46;;;;;;;10.80;7.67;;;;;;;7.30;74.57;100370.44;1637595;85;21100;-65
2021/10/14 03:25:12;;;;;;;10.88;8.53;;;;;;;7.25;74.66;100363.48;1583954;87;21837;-65
2021/10/14 03:27:38;;;;;;;11.28;9.03;;;;;;;7.15;74.84;100370.78;1609119;86;22388;-65
2021/10/14 03:30:06;;;;;;;10.68;8.40;;;;;;;7.02;75.24;100369.94;1580964;88;21141;-65
2021/10/14 03:32:33;;;;;;;8.07;7.27;;;;;;;6.93;75.69;100368.27;1639105;84;22024;-65
2021/10/14 03:34:59;;;;;;;10.00;7.70;;;;;;;6.90;75.72;100373.41;1608831;85;21097;-66
2021/10/14 03:37:25;;;;;;;11.12;8.23;;;;;;;6.91;75.56;100368.93;1590989;87;21100;-66
2021/10/14 03:39:51;;;;;;;8.50;7.78;;;;;;;6.90;75.54;100369.94;1653939;84;21079;-68
2021/10/14 03:42:17;;;;;;;10.35;9.15;;;;;;;6.86;75.58;100372.59;1653937;84;21630;-65
2021/10/14 03:44:43;;;;;;;9.30;7.97;;;;;;;6.41;75.72;100314.54;1651715;84;21066;-66
2021/10/14 03:47:09;;;;;;;10.10;9.08;;;;;;;6.69;75.99;100377.02;1643560;84;21082;-65
2021/10/14 03:49:35;;;;;;;12.28;10.23;;;;;;;6.61;76.14;100384.42;1646589;84;21126;-66
2021/10/14 03:52:02;;;;;;;14.67;8.30;;;;;;;6.58;76.26;100378.97;1657700;84;21136;-63
2021/10/14 03:54:29;;;;;;;10.63;8.80;;;;;;;6.61;76.32;100389.72;1643333;84;21229;-65
2021/10/14 03:56:58;;;;;;;9.67;8.70;;;;;;;6.63;76.35;100393.06;1608791;84;23541;-67
2021/10/14 03:59:24;;;;;;;9.73;8.83;;;;;;;6.62;76.41;100396.69;1627052;84;22269;-68
2021/10/14 04:01:50;;;;;;;11.08;8.63;;;;;;;6.61;76.37;100400.31;1658699;82;22560;-68
2021/10/14 04:04:16;;;;;;;8.28;7.47;;;;;;;6.57;76.35;100388.39;1667685;82;21182;-67
2021/10/14 04:06:42;;;;;;;11.28;9.25;;;;;;;6.51;76.44;100403.61;1652197;83;21131;-66
2021/10/14 04:09:08;;;;;;;10.53;9.28;;;;;;;6.43;76.64;100403.09;1651519;83;21581;-65
2021/10/14 04:11:35;;;;;;;13.32;9.98;;;;;;;6.41;76.65;100411.69;1639647;83;21571;-64
2021/10/14 04:14:01;;;;;;;10.50;9.50;;;;;;;6.27;76.45;100383.98;1622292;84;22628;-66
2021/10/14 04:16:27;;;;;;;10.15;9.13;;;;;;;6.49;76.20;100417.00;1623431;84;21536;-66
2021/10/14 04:18:53;;;;;;;10.15;9.03;;;;;;;6.51;76.14;100417.67;1624582;84;21424;-68
2021/10/14 04:21:20;;;;;;;10.25;8.65;;;;;;;6.45;76.06;100414.84;1623847;84;23042;-65
2021/10/14 04:23:47;;;;;;;10.33;9.00;;;;;;;6.43;76.16;100412.35;1623762;84;22688;-66
2021/10/14 04:26:13;;;;;;;11.33;9.75;;;;;;;6.38;76.07;100418.11;1624714;84;21701;-69
2021/10/14 04:28:40;;;;;;;10.80;9.53;;;;;;;6.38;76.22;100428.70;1623210;84;21203;-70
2021/10/14 04:31:06;;;;;;;12.50;10.17;;;;;;;6.41;76.01;100429.72;1625384;84;21180;-66
2021/10/14 04:33:32;;;;;;;12.53;11.05;;;;;;;6.45;76.08;100426.26;1629784;84;21225;-66
2021/10/14 04:36:04;;;;;;;16.35;12.07;;;;;;;6.46;75.92;100435.02;1650109;84;21201;-66
2021/10/14 04:38:32;;;;;;;14.37;12.03;;;;;;;6.24;76.05;100405.48;1622683;84;21365;-65
2021/10/14 04:40:58;;;;;;;14.53;13.07;;;;;;;6.37;76.18;100444.77;1605037;85;21109;-65
2021/10/14 04:43:26;;;;;;;12.30;10.93;;;;;;;6.34;76.04;100445.89;1618561;84;23986;-66
2021/10/14 04:45:53;;;;;;;13.05;11.68;;;;;;;6.34;75.88;100457.80;1632427;84;21462;-66
2021/10/14 04:48:19;;;;;;;13.83;11.97;;;;;;;6.34;75.84;100455.16;1631278;84;21737;-67
2021/10/14 04:50:45;;;;;;;15.85;13.30;;;;;;;6.35;75.78;100459.48;1636985;84;21964;-65
2021/10/14 04:53:11;;;;;;;13.18;11.22;;;;;;;6.33;75.78;100467.22;1633818;85;21174;-64
2021/10/14 04:55:38;;;;;;;14.60;13.08;;;;;;;6.18;76.03;100453.27;1640432;83;21252;-68
2021/10/14 04:58:04;;;;;;;;;;;;;;;6.18;76.33;100476.27;1639599;84;22444;-68
2021/10/14 05:00:31;;;;;;;15.32;12.53;;;;;;;6.23;76.66;100479.25;1645021;83;20223;-65
2021/10/14 05:02:58;;;;;;;16.12;12.65;;;;;;;6.50;77.05;100481.37;1675469;82;21996;-66
2021/10/14 05:05:25;;;;;;;;;;;;;;;7.12;76.02;100480.63;1673766;82;21633;-65
2021/10/14 05:07:51;;;;;;;14.90;13.37;;;;;;;7.84;73.82;100484.00;1672331;82;20267;-66
2021/10/14 05:10:18;;;;;;;15.55;12.00;;;;;;;8.43;71.69;100485.08;1673609;82;21187;-67
2021/10/14 05:12:46;;;;;;;13.63;12.27;;;;;;;8.99;68.17;100489.02;1694802;81;21363;-65
2021/10/14 05:15:12;;;;;;;15.90;13.25;;;;;;;9.36;66.19;100491.44;1641148;84;21195;-72
2021/10/14 05:17:38;;;;;;;17.43;12.73;;;;;;;9.69;65.57;100494.70;1670418;83;21208;-71
2021/10/14 05:20:07;;;;;;;14.78;11.95;;;;;;;10.08;63.12;100503.53;1673161;82;21512;-72
2021/10/14 05:22:34;;;;;;;13.83;12.35;;;;;;;10.26;62.68;100478.69;1672047;83;22396;-65
2021/10/14 05:25:00;;;;;;;13.45;12.15;;;;;;;10.77;61.23;100505.14;1668708;82;21819;-66
2021/10/14 05:27:26;;;;;;;14.40;12.78;;;;;;;11.08;59.94;100506.26;1701100;81;21699;-63
2021/10/14 05:29:52;;;;;;;14.98;12.98;;;;;;;11.23;58.46;100502.22;1677946;82;21613;-68
2021/10/14 05:32:18;;;;;;;14.15;12.75;;;;;;;11.43;58.87;100507.27;1699570;81;21063;-70
2021/10/14 05:34:44;;;;;;;15.65;14.10;;;;;;;11.75;57.38;100503.73;1672901;82;21130;-71
2021/10/14 05:37:10;;;;;;;13.35;12.05;;;;;;;12.04;56.09;100510.81;1637319;83;21151;-69
2021/10/14 05:39:36;;;;;;;15.98;14.47;;;;;;;12.08;54.90;100492.55;1639528;84;21128;-69
2021/10/14 05:42:03;;;;;;;14.78;13.40;;;;;;;12.30;54.97;100524.06;1640137;84;21073;-68
2021/10/14 05:44:29;;;;;;;;;;;;;;;12.33;54.92;100503.61;1647907;83;21671;-69
2021/10/14 05:46:55;;;;;;;17.02;13.30;;;;;;;12.73;53.33;100532.42;1681878;82;20223;-67
2021/10/14 05:49:21;;;;;;;18.20;14.53;;;;;;;12.73;53.09;100529.75;1695575;83;21108;-74
2021/10/14 05:51:47;;;;;;;18.57;15.10;;;;;;;12.88;52.66;100534.45;1697340;82;21666;-67
2021/10/14 05:54:13;;;;;;;18.32;13.72;;;;;;;13.02;52.49;100538.03;1695939;83;21103;-71
2021/10/14 05:56:39;;;;;;;16.52;13.98;;;;;;;13.29;51.94;100535.45;1701078;83;21675;-72
2021/10/14 05:59:05;;;;;;;;;;;;;;;13.44;51.30;100538.29;1699914;83;21160;-71
2021/10/14 06:01:31;;;;;;;15.28;13.78;;;;;;;13.50;50.35;100537.18;1679757;83;20194;-71
2021/10/14 06:03:57;;;;;;;16.25;14.58;;;;;;;13.36;50.66;100545.18;1665320;84;21082;-69
2021/10/14 06:06:24;;;;;;;;;;;;;;;12.66;51.31;100541.77;1663154;84;21210;-70
2021/10/14 06:08:51;;;;;;;18.63;16.23;;;;;;;11.82;53.42;100552.70;1662251;84;20224;-68
2021/10/14 06:11:17;;;;;;;16.82;15.25;;;;;;;11.12;55.68;100561.40;1641180;85;21176;-63
2021/10/14 06:13:43;;;;;;;17.60;15.50;;;;;;;10.54;57.00;100567.89;1664211;84;21087;-69
2021/10/14 06:16:09;;;;;;;19.42;17.45;;;;;;;10.12;58.62;100564.75;1661723;84;21552;-65
2021/10/14 06:18:37;;;;;;;22.42;17.50;;;;;;;9.83;59.89;100569.46;1644071;84;21560;-66
2021/10/14 06:21:03;;;;;;;17.50;15.80;;;;;;;9.55;60.97;100567.34;1647261;84;21340;-62
2021/10/14 06:23:30;;;;;;;18.87;16.47;;;;;;;9.29;62.02;100572.97;1662477;84;22303;-63
2021/10/14 06:25:58;;;;;;;17.12;15.28;;;;;;;9.07;63.31;100579.37;1660738;85;21387;-63
2021/10/14 06:28:24;;;;;;;18.80;15.67;;;;;;;8.88;63.95;100581.94;1683254;84;21123;-64
2021/10/14 06:30:52;;;;;;;21.90;17.63;;;;;;;8.74;64.98;100581.33;1682764;85;21037;-64
2021/10/14 06:33:18;;;;;;;17.17;15.27;;;;;;;8.62;65.22;100585.33;1678494;82;21152;-67
2021/10/14 06:35:44;;;;;;;17.37;15.68;;;;;;;8.57;65.82;100584.52;1734043;82;21358;-63
2021/10/14 06:38:12;;;;;;;18.55;15.40;;;;;;;8.58;65.95;100592.81;1732178;82;21918;-67
2021/10/14 06:40:38;;;;;;;17.20;15.50;;;;;;;8.51;66.58;100596.66;1733827;82;21806;-67
2021/10/14 06:43:04;;;;;;;21.48;17.55;;;;;;;8.49;66.71;100598.62;1734821;82;21072;-65
2021/10/14 06:45:30;;;;;;;18.98;17.10;;;;;;;8.44;66.56;100596.99;1708794;82;21108;-64
2021/10/14 06:47:58;;;;;;;19.80;17.70;;;;;;;8.35;66.94;100597.45;1693055;84;21080;-65
2021/10/14 06:50:24;;;;;;;19.03;16.63;;;;;;;8.32;67.31;100598.28;1686689;84;21333;-65
2021/10/14 06:52:51;;;;;;;17.45;15.40;;;;;;;8.28;67.78;100599.11;1689470;84;21365;-64
2021/10/14 06:55:17;;;;;;;16.65;14.87;;;;;;;8.32;67.66;100601.77;1688855;82;21015;-64
2021/10/14 06:57:43;;;;;;;16.20;14.58;;;;;;;8.43;67.68;100606.45;1681786;84;21025;-64
2021/10/14 07:00:11;;;;;;;18.92;16.35;;;;;;;8.48;67.41;100612.92;1682657;82;20999;-64
2021/10/14 07:02:36;;;;;;;18.83;16.63;;;;;;;8.48;67.38;100618.74;1713090;82;20981;-70
2021/10/14 07:05:04;;;;;;;18.48;16.32;;;;;;;8.44;67.52;100612.93;1709382;82;21075;-66
2021/10/14 07:07:30;;;;;;;23.17;18.00;;;;;;;8.42;67.99;100614.93;1708513;82;21852;-64
2021/10/14 07:09:56;;;;;;;19.45;15.68;;;;;;;8.43;67.72;100615.75;1714301;82;21015;-65
2021/10/14 07:12:27;;;;;;;17.30;15.35;;;;;;;8.46;67.86;100624.72;1704183;82;21053;-64
2021/10/14 07:14:50;;;;;;;17.77;15.87;;;;;;;8.51;67.94;100618.39;1706578;82;21184;-64
2021/10/14 07:17:16;;;;;;;16.12;14.43;;;;;;;8.61;67.51;100620.86;1701496;82;21598;-65
2021/10/14 07:19:42;;;;;;;16.55;14.38;;;;;;;8.73;67.08;100620.34;1700767;82;21313;-66
2021/10/14 07:22:08;;;;;;;18.87;16.77;;;;;;;8.79;67.03;100618.02;1702315;81;21947;-65
2021/10/14 07:24:34;;;;;;;18.82;16.93;;;;;;;8.76;66.80;100622.67;1711707;81;21060;-67
2021/10/14 07:27:00;;;;;;;21.40;16.87;;;;;;;8.75;66.72;100618.85;1706374;81;21026;-68
2021/10/14 07:29:28;;;;;;;21.20;18.02;;;;;;;8.75;66.84;100624.98;1724559;81;21032;-66
2021/10/14 07:31:55;;;;;;;19.13;17.17;;;;;;;8.77;66.32;100628.81;1720863;81;21086;-66
2021/10/14 07:34:22;;;;;;;29.93;19.37;;;;;;;8.75;66.55;100626.83;1704664;81;21130;-66
2021/10/14 07:36:48;;;;;;;17.20;15.38;;;;;;;8.76;66.64;100629.32;1690785;83;21833;-67
2021/10/14 07:39:14;;;;;;;18.42;16.52;;;;;;;8.83;66.67;100632.63;1695538;83;21088;-65
2021/10/14 07:41:40;;;;;;;18.05;15.15;;;;;;;8.90;66.35;100625.12;1709515;83;21484;-66
2021/10/14 07:44:07;;;;;;;16.55;14.85;;;;;;;8.93;66.66;100626.63;1720103;82;21172;-66
2021/10/14 07:46:33;;;;;;;16.42;14.35;;;;;;;8.96;66.27;100631.08;1719467;81;21065;-66
2021/10/14 07:48:59;;;;;;;21.12;15.28;;;;;;;9.05;66.30;100635.06;1739544;81;21076;-67
2021/10/14 07:51:25;;;;;;;16.87;15.25;;;;;;;9.12;65.54;100633.38;1704083;82;21012;-68
2021/10/14 07:53:51;;;;;;;18.85;15.13;;;;;;;9.10;65.05;100633.55;1717166;81;21022;-66
2021/10/14 07:56:17;;;;;;;17.92;15.98;;;;;;;9.11;65.12;100640.52;1694563;81;21334;-69
2021/10/14 07:58:43;;;;;;;22.05;17.50;;;;;;;9.13;65.53;100642.49;1667535;84;21034;-72
2021/10/14 08:01:11;;;;;;;17.60;14.35;;;;;;;9.17;65.54;100645.64;1656434;84;21032;-70
2021/10/14 08:03:38;;;;;;;16.87;15.07;;;;;;;9.26;65.51;100649.94;1660788;85;21937;-68
2021/10/14 08:06:04;;;;;;;17.90;15.73;;;;;;;9.33;64.34;100649.58;1672135;84;21986;-72
2021/10/14 08:08:30;;;;;;;17.90;15.38;;;;;;;9.29;64.64;100649.61;1678613;84;21102;-69
2021/10/14 08:10:56;;;;;;;18.92;16.93;;;;;;;9.29;64.37;100654.11;1673141;84;20999;-73
2021/10/14 08:14:08;;;;;;;15.90;14.30;;;;;;;9.30;64.53;100653.09;1779974;78;22619;-67
2021/10/14 08:16:34;;;;;;;17.40;12.95;;;;;;;9.31;64.39;100658.75;1743551;80;21278;-70
2021/10/14 08:19:01;;;;;;;15.03;13.58;;;;;;;9.32;64.28;100652.41;1748311;80;21152;-67
2021/10/14 08:21:27;;;;;;;15.10;13.50;;;;;;;9.36;63.87;100657.70;1735551;80;21985;-64
2021/10/14 08:23:53;;;;;;;;;;;;;;;9.39;63.77;100649.39;1716680;81;21358;-63
2021/10/14 08:26:19;;;;;;;18.63;15.33;;;;;;;9.38;63.90;100655.73;1707752;81;20184;-64
2021/10/14 08:28:45;;;;;;;17.90;14.43;;;;;;;9.36;64.20;100663.03;1721635;81;21110;-64
2021/10/14 08:31:11;;;;;;;18.80;16.02;;;;;;;9.41;64.12;100656.70;1711938;81;21033;-64
2021/10/14 08:33:37;;;;;;;16.60;14.90;;;;;;;9.44;63.74;100655.03;1700100;81;21130;-65
2021/10/14 08:36:04;;;;;;;17.05;14.68;;;;;;;9.51;63.66;100658.66;1688352;82;21087;-68
2021/10/14 08:38:30;;;;;;;21.00;14.60;;;;;;;9.61;63.37;100661.11;1690467;82;22849;-64
2021/10/14 08:40:57;;;;;;;14.87;12.43;;;;;;;9.74;63.32;100657.89;1690619;82;21102;-66
2021/10/14 08:43:27;;;;;;;18.15;13.48;;;;;;;9.91;62.61;100653.30;1692191;82;21142;-63
2021/10/14 08:45:53;;;;;;;14.07;12.47;;;;;;;10.08;62.03;100662.01;1713531;81;21287;-64
2021/10/14 08:48:20;;;;;;;18.25;12.90;;;;;;;10.17;61.78;100660.09;1722535;80;21310;-67
2021/10/14 08:50:47;;;;;;;13.60;11.78;;;;;;;10.19;61.93;100664.73;1723432;81;21233;-68
2021/10/14 08:53:14;;;;;;;15.07;13.37;;;;;;;10.22;62.05;100665.21;1720546;80;21336;-69
2021/10/14 08:55:41;;;;;;;18.13;13.20;;;;;;;10.28;61.79;100671.67;1718282;80;21269;-69
2021/10/14 08:58:12;;;;;;;18.85;15.90;;;;;;;10.34;61.71;100661.68;1690362;82;21113;-67
2021/10/14 09:00:44;;;;;;;16.87;14.70;;;;;;;10.43;61.48;100666.42;1699185;82;21052;-68
2021/10/14 09:03:29;;;;;;;15.03;13.37;;;;;;;10.52;61.00;100666.17;1719718;80;20978;-70
2021/10/14 09:05:57;;;;;;;19.83;13.07;;;;;;;10.63;60.73;100667.58;1714420;82;21874;-68
2021/10/14 09:08:42;;;;;;;16.25;13.60;;;;;;;10.68;60.16;100673.20;1723852;80;21322;-66
2021/10/14 09:11:16;;;;;;;15.47;12.13;;;;;;;10.63;59.33;100676.09;1731077;81;21169;-66
2021/10/14 09:13:50;;;;;;;18.15;12.05;;;;;;;10.58;59.74;100679.28;1742537;81;21092;-65
2021/10/14 09:16:34;;;;;;;13.60;12.20;;;;;;;10.55;59.10;100683.66;1743944;81;21033;-68
2021/10/14 09:19:22;;;;;;;13.70;12.30;;;;;;;10.53;59.35;100679.02;1741847;81;21470;-63
2021/10/14 09:22:00;;;;;;;;;;;;;;;10.59;59.05;100682.28;1737847;81;21343;-66
2021/10/14 09:24:37;;;;;;;18.17;11.40;;;;;;;10.64;59.18;100680.39;1680570;82;20166;-66
2021/10/14 09:27:08;;;;;;;13.65;11.95;;;;;;;10.51;58.99;100667.19;1682963;83;21160;-61
2021/10/14 09:29:37;;;;;;;14.93;12.80;;;;;;;10.68;59.22;100685.69;1688021;83;21793;-60
2021/10/14 09:32:07;;;;;;;13.93;12.40;;;;;;;10.74;59.39;100685.47;1682514;83;21166;-62
2021/10/14 09:34:40;;;;;;;13.87;12.33;;;;;;;10.83;59.01;100695.05;1691893;83;21592;-65
2021/10/14 09:37:23;;;;;;;16.60;13.07;;;;;;;10.88;58.81;100691.34;1701298;82;21058;-65
2021/10/14 09:40:04;;;;;;;13.08;10.10;;;;;;;10.94;58.66;100694.61;1707894;82;21858;-62
2021/10/14 09:43:03;;;;;;;13.53;12.20;;;;;;;11.04;58.45;100684.52;1707163;82;21245;-63
2021/10/14 09:45:31;;;;;;;11.35;10.13;;;;;;;11.11;57.45;100687.27;1731805;81;21022;-64
2021/10/14 09:48:08;;;;;;;12.10;10.40;;;;;;;11.09;57.22;100686.14;1727601;81;21088;-63
2021/10/14 09:50:41;;;;;;;15.40;11.00;;;;;;;11.13;57.64;100689.24;1743577;81;21324;-61
2021/10/14 09:53:16;;;;;;;14.65;11.48;;;;;;;11.18;57.74;100682.05;1739070;81;21156;-61
2021/10/14 09:55:44;;;;;;;12.18;11.05;;;;;;;11.26;57.73;100682.79;1716897;81;21099;-63
2021/10/14 09:58:11;;;;;;;13.70;11.70;;;;;;;11.36;57.67;100685.17;1692557;83;21049;-62
2021/10/14 10:00:39;;;;;;;15.55;11.53;;;;;;;11.34;56.25;100685.87;1696569;81;21301;-64
2021/10/14 10:03:09;;;;;;;13.22;11.90;;;;;;;11.36;57.00;100684.32;1707924;81;21077;-63
2021/10/14 10:05:40;;;;;;;11.73;10.63;;;;;;;11.39;57.25;100690.64;1709377;82;21062;-65
2021/10/14 10:08:10;;;;;;;13.25;10.15;;;;;;;11.50;57.39;100688.83;1718975;81;21057;-65
2021/10/14 10:10:40;;;;;;;17.23;11.65;;;;;;;11.59;56.46;100686.39;1717564;82;21026;-63
2021/10/14 10:13:08;;;;;;;16.40;10.90;;;;;;;11.62;56.07;100689.18;1728377;81;21415;-66
2021/10/14 10:15:49;;;;;;;10.30;8.95;;;;;;;11.64;55.84;100689.81;1737912;82;21796;-62
2021/10/14 10:18:34;;;;;;;9.53;8.45;;;;;;;11.63;54.68;100703.69;1733518;82;21025;-63
2021/10/14 10:21:06;;;;;;;11.73;9.85;;;;;;;11.63;55.02;100698.34;1720132;82;21324;-66
2021/10/14 10:23:49;;;;;;;14.10;9.83;;;;;;;11.66;54.93;100707.84;1723115;82;21170;-69
2021/10/14 10:26:39;;;;;;;13.83;11.40;;;;;;;11.71;54.98;100706.75;1726636;82;21349;-61
2021/10/14 10:29:23;;;;;;;12.30;9.05;;;;;;;11.72;55.14;100711.09;1742957;82;21042;-68
2021/10/14 10:31:59;;;;;;;12.58;9.93;;;;;;;11.77;54.89;100715.86;1728983;82;21093;-62
2021/10/14 10:34:46;;;;;;;10.50;8.98;;;;;;;11.81;54.45;100705.13;1717056;82;21748;-63
2021/10/14 10:37:26;;;;;;;11.18;9.50;;;;;;;11.84;54.64;100714.10;1659272;84;21158;-64
2021/10/14 10:39:57;;;;;;;12.15;9.58;;;;;;;11.95;54.39;100714.17;1721985;82;21056;-61
2021/10/14 10:42:36;;;;;;;10.85;9.75;;;;;;;12.04;54.16;100713.04;1736641;81;21009;-62
2021/10/14 10:45:16;;;;;;;10.75;9.68;;;;;;;12.10;54.40;100710.12;1684420;83;20950;-65
2021/10/14 10:47:57;;;;;;;10.60;9.55;;;;;;;12.18;54.37;100707.31;1723297;82;20952;-64
2021/10/14 10:50:31;;;;;;;13.83;11.22;;;;;;;12.20;52.58;100711.45;1689213;84;21044;-61
2021/10/14 10:53:19;;;;;;;15.48;11.40;;;;;;;12.10;53.25;100714.95;1719085;82;21401;-62
2021/10/14 10:55:59;;;;;;;15.65;11.20;;;;;;;12.01;53.80;100727.58;1727958;81;21003;-63
2021/10/14 10:58:47;;;;;;;13.32;11.97;;;;;;;11.95;53.60;100731.53;1727538;82;20971;-62
2021/10/14 11:01:17;;;;;;;12.35;11.05;;;;;;;11.85;54.26;100728.61;1722679;82;21037;-63
2021/10/14 11:03:59;;;;;;;11.83;10.55;;;;;;;11.81;54.51;100712.65;1716140;82;21045;-59
2021/10/14 11:06:29;;;;;;;15.93;12.40;;;;;;;11.78;54.47;100726.36;1717999;82;21102;-62
2021/10/14 11:09:05;;;;;;;15.90;11.73;;;;;;;11.77;54.30;100728.73;1729562;82;21282;-63
2021/10/14 11:11:37;;;;;;;15.38;12.75;;;;;;;11.75;54.75;100732.58;1722580;82;21899;-63
2021/10/14 11:14:04;;;;;;;13.70;11.90;;;;;;;11.77;54.61;100732.73;1715120;82;21152;-61
2021/10/14 11:16:32;;;;;;;16.87;11.75;;;;;;;11.79;54.60;100742.72;1719954;82;21094;-61
2021/10/14 11:19:01;;;;;;;12.37;11.18;;;;;;;11.84;54.58;100733.62;1725489;82;21073;-61
2021/10/14 11:21:28;;;;;;;14.23;11.65;;;;;;;11.91;54.35;100738.27;1724810;82;21013;-63
2021/10/14 11:23:57;;;;;;;12.85;11.55;;;;;;;11.89;54.35;100739.75;1731275;82;21265;-61
2021/10/14 11:26:31;;;;;;;15.63;12.88;;;;;;;11.92;54.78;100743.40;1728230;82;21907;-62